sensor_id;sensor_type;location;lat;lon;timestamp;P1;durP1;ratioP1;P2;durP2;ratioP2
16033;SDS011;8121;51.418;6.998;2022-09-23T00:05:40;0.80;;;0.70;;
16033;SDS011;8121;51.418;6.998;2022-09-23T00:15:42;0.80;;;0.77;;
16033;SDS011;8121;51.418;6.998;2022-09-23T00:25:44;1.20;;;1.10;;
16033;SDS011;8121;51.418;6.998;2022-09-23T00:35:46;1.53;;;1.03;;
16033;SDS011;8121;51.418;6.998;2022-09-23T00:45:50;0.83;;;0.83;;
16033;SDS011;8121;51.418;6.998;2022-09-23T00:55:52;2.10;;;0.80;;
16033;SDS011;8121;51.418;6.998;2022-09-23T01:05:56;0.70;;;0.70;;
16033;SDS011;8121;51.418;6.998;2022-09-23T01:15:59;0.60;;;0.60;;
16033;SDS011;8121;51.418;6.998;2022-09-23T01:26:12;0.70;;;0.60;;
16033;SDS011;8121;51.418;6.998;2022-09-23T01:36:28;0.80;;;0.70;;
16033;SDS011;8121;51.418;6.998;2022-09-23T01:46:34;1.07;;;0.83;;
16033;SDS011;8121;51.418;6.998;2022-09-23T01:56:41;0.70;;;0.70;;
16033;SDS011;8121;51.418;6.998;2022-09-23T02:06:46;1.30;;;0.90;;
16033;SDS011;8121;51.418;6.998;2022-09-23T02:16:51;1.07;;;0.90;;
16033;SDS011;8121;51.418;6.998;2022-09-23T02:26:57;0.70;;;0.70;;
16033;SDS011;8121;51.418;6.998;2022-09-23T02:37:04;0.80;;;0.60;;
16033;SDS011;8121;51.418;6.998;2022-09-23T02:47:08;1.90;;;0.83;;
16033;SDS011;8121;51.418;6.998;2022-09-23T02:57:11;2.40;;;0.80;;
16033;SDS011;8121;51.418;6.998;2022-09-23T03:07:15;0.70;;;0.70;;
16033;SDS011;8121;51.418;6.998;2022-09-23T03:17:22;0.97;;;0.87;;
16033;SDS011;8121;51.418;6.998;2022-09-23T03:27:26;0.70;;;0.70;;
16033;SDS011;8121;51.418;6.998;2022-09-23T03:37:32;0.90;;;0.63;;
16033;SDS011;8121;51.418;6.998;2022-09-23T03:47:35;0.73;;;0.70;;
16033;SDS011;8121;51.418;6.998;2022-09-23T03:57:39;0.70;;;0.70;;
16033;SDS011;8121;51.418;6.998;2022-09-23T04:07:41;0.70;;;0.70;;
16033;SDS011;8121;51.418;6.998;2022-09-23T04:17:44;0.73;;;0.73;;
16033;SDS011;8121;51.418;6.998;2022-09-23T04:27:45;2.70;;;1.10;;
16033;SDS011;8121;51.418;6.998;2022-09-23T04:37:48;0.60;;;0.57;;
16033;SDS011;8121;51.418;6.998;2022-09-23T04:47:50;0.80;;;0.70;;
16033;SDS011;8121;51.418;6.998;2022-09-23T04:57:53;1.77;;;0.70;;
16033;SDS011;8121;51.418;6.998;2022-09-23T05:07:55;1.40;;;0.70;;
16033;SDS011;8121;51.418;6.998;2022-09-23T05:17:58;0.80;;;0.80;;
16033;SDS011;8121;51.418;6.998;2022-09-23T05:28:01;1.17;;;0.70;;
16033;SDS011;8121;51.418;6.998;2022-09-23T05:38:04;1.53;;;1.00;;
16033;SDS011;8121;51.418;6.998;2022-09-23T05:48:06;0.80;;;0.80;;
16033;SDS011;8121;51.418;6.998;2022-09-23T05:58:09;0.90;;;0.73;;
16033;SDS011;8121;51.418;6.998;2022-09-23T06:08:10;1.83;;;0.90;;
16033;SDS011;8121;51.418;6.998;2022-09-23T06:18:14;1.03;;;0.70;;
16033;SDS011;8121;51.418;6.998;2022-09-23T06:28:16;3.53;;;0.97;;
16033;SDS011;8121;51.418;6.998;2022-09-23T06:38:20;2.03;;;0.93;;
16033;SDS011;8121;51.418;6.998;2022-09-23T06:48:22;0.80;;;0.80;;
16033;SDS011;8121;51.418;6.998;2022-09-23T06:58:25;0.70;;;0.60;;
16033;SDS011;8121;51.418;6.998;2022-09-23T07:08:27;1.00;;;0.70;;
16033;SDS011;8121;51.418;6.998;2022-09-23T07:18:31;1.10;;;1.00;;
16033;SDS011;8121;51.418;6.998;2022-09-23T07:28:36;1.10;;;1.00;;
16033;SDS011;8121;51.418;6.998;2022-09-23T07:38:39;1.13;;;0.80;;
16033;SDS011;8121;51.418;6.998;2022-09-23T07:48:41;1.87;;;0.80;;
16033;SDS011;8121;51.418;6.998;2022-09-23T07:58:44;1.10;;;1.00;;
16033;SDS011;8121;51.418;6.998;2022-09-23T08:08:59;1.30;;;1.20;;
16033;SDS011;8121;51.418;6.998;2022-09-23T08:19:02;14.57;;;2.67;;
16033;SDS011;8121;51.418;6.998;2022-09-23T08:29:03;1.30;;;1.20;;
16033;SDS011;8121;51.418;6.998;2022-09-23T08:39:11;1.30;;;1.17;;
16033;SDS011;8121;51.418;6.998;2022-09-23T08:49:19;13.30;;;1.60;;
16033;SDS011;8121;51.418;6.998;2022-09-23T08:59:26;1.00;;;0.90;;
16033;SDS011;8121;51.418;6.998;2022-09-23T09:09:31;1.10;;;1.00;;
16033;SDS011;8121;51.418;6.998;2022-09-23T09:19:39;1.63;;;0.90;;
16033;SDS011;8121;51.418;6.998;2022-09-23T09:29:47;2.97;;;0.93;;
16033;SDS011;8121;51.418;6.998;2022-09-23T09:39:53;3.23;;;1.00;;
16033;SDS011;8121;51.418;6.998;2022-09-23T09:49:56;0.80;;;0.80;;
16033;SDS011;8121;51.418;6.998;2022-09-23T10:10:39;1.10;;;1.00;;
16033;SDS011;8121;51.418;6.998;2022-09-23T10:20:59;6.60;;;1.60;;
16033;SDS011;8121;51.418;6.998;2022-09-23T10:31:11;1.10;;;1.00;;
16033;SDS011;8121;51.418;6.998;2022-09-23T10:41:20;2.70;;;0.80;;
16033;SDS011;8121;51.418;6.998;2022-09-23T10:51:46;1.57;;;0.80;;
16033;SDS011;8121;51.418;6.998;2022-09-23T11:01:54;0.93;;;0.83;;
16033;SDS011;8121;51.418;6.998;2022-09-23T11:12:04;6.57;;;0.80;;
16033;SDS011;8121;51.418;6.998;2022-09-23T11:22:24;0.93;;;0.90;;
16033;SDS011;8121;51.418;6.998;2022-09-23T11:32:41;2.50;;;0.97;;
16033;SDS011;8121;51.418;6.998;2022-09-23T11:42:57;0.70;;;0.70;;
16033;SDS011;8121;51.418;6.998;2022-09-23T11:53:01;1.63;;;1.00;;
16033;SDS011;8121;51.418;6.998;2022-09-23T12:03:10;2.20;;;1.43;;
16033;SDS011;8121;51.418;6.998;2022-09-23T12:13:16;5.53;;;1.30;;
16033;SDS011;8121;51.418;6.998;2022-09-23T12:23:27;1.63;;;1.10;;
16033;SDS011;8121;51.418;6.998;2022-09-23T12:33:38;2.33;;;1.40;;
16033;SDS011;8121;51.418;6.998;2022-09-23T12:43:42;3.53;;;1.20;;
16033;SDS011;8121;51.418;6.998;2022-09-23T13:04:31;1.30;;;0.80;;
16033;SDS011;8121;51.418;6.998;2022-09-23T13:14:53;1.97;;;1.77;;
16033;SDS011;8121;51.418;6.998;2022-09-23T13:24:58;3.90;;;1.50;;
16033;SDS011;8121;51.418;6.998;2022-09-23T13:35:02;1.13;;;1.03;;
16033;SDS011;8121;51.418;6.998;2022-09-23T13:45:11;1.73;;;1.07;;
16033;SDS011;8121;51.418;6.998;2022-09-23T13:55:24;1.30;;;1.00;;
16033;SDS011;8121;51.418;6.998;2022-09-23T14:05:31;3.50;;;1.10;;
16033;SDS011;8121;51.418;6.998;2022-09-23T14:15:34;1.37;;;1.17;;
16033;SDS011;8121;51.418;6.998;2022-09-23T14:25:38;1.63;;;1.17;;
16033;SDS011;8121;51.418;6.998;2022-09-23T14:35:41;2.80;;;1.10;;
16033;SDS011;8121;51.418;6.998;2022-09-23T14:45:48;1.13;;;1.03;;
16033;SDS011;8121;51.418;6.998;2022-09-23T14:55:51;2.30;;;1.10;;
16033;SDS011;8121;51.418;6.998;2022-09-23T15:05:58;1.00;;;0.93;;
16033;SDS011;8121;51.418;6.998;2022-09-23T15:16:02;2.80;;;1.27;;
16033;SDS011;8121;51.418;6.998;2022-09-23T15:26:07;2.23;;;1.20;;
16033;SDS011;8121;51.418;6.998;2022-09-23T15:36:10;1.00;;;0.83;;
16033;SDS011;8121;51.418;6.998;2022-09-23T15:46:18;3.03;;;1.00;;
16033;SDS011;8121;51.418;6.998;2022-09-23T15:56:21;1.23;;;0.83;;
16033;SDS011;8121;51.418;6.998;2022-09-23T16:06:24;2.00;;;0.60;;
16033;SDS011;8121;51.418;6.998;2022-09-23T16:16:27;1.30;;;0.80;;
16033;SDS011;8121;51.418;6.998;2022-09-23T16:26:40;0.80;;;0.67;;
16033;SDS011;8121;51.418;6.998;2022-09-23T16:36:42;1.10;;;0.70;;
16033;SDS011;8121;51.418;6.998;2022-09-23T16:46:45;2.10;;;1.00;;
16033;SDS011;8121;51.418;6.998;2022-09-23T16:56:47;1.00;;;0.73;;
16033;SDS011;8121;51.418;6.998;2022-09-23T17:06:51;1.80;;;1.00;;
16033;SDS011;8121;51.418;6.998;2022-09-23T17:16:53;0.90;;;0.70;;
16033;SDS011;8121;51.418;6.998;2022-09-23T17:26:56;0.90;;;0.90;;
16033;SDS011;8121;51.418;6.998;2022-09-23T17:36:58;1.10;;;0.87;;
16033;SDS011;8121;51.418;6.998;2022-09-23T17:47:03;3.90;;;0.97;;
16033;SDS011;8121;51.418;6.998;2022-09-23T17:57:05;1.33;;;0.80;;
16033;SDS011;8121;51.418;6.998;2022-09-23T18:07:08;0.83;;;0.83;;
16033;SDS011;8121;51.418;6.998;2022-09-23T18:17:10;0.90;;;0.73;;
16033;SDS011;8121;51.418;6.998;2022-09-23T18:27:13;2.23;;;0.83;;
16033;SDS011;8121;51.418;6.998;2022-09-23T18:37:17;2.20;;;1.03;;
16033;SDS011;8121;51.418;6.998;2022-09-23T18:47:21;1.03;;;0.60;;
16033;SDS011;8121;51.418;6.998;2022-09-23T18:57:41;1.07;;;0.93;;
16033;SDS011;8121;51.418;6.998;2022-09-23T19:07:46;1.40;;;0.80;;
16033;SDS011;8121;51.418;6.998;2022-09-23T19:17:48;0.83;;;0.80;;
16033;SDS011;8121;51.418;6.998;2022-09-23T19:27:53;1.40;;;1.00;;
16033;SDS011;8121;51.418;6.998;2022-09-23T19:37:55;1.20;;;0.83;;
16033;SDS011;8121;51.418;6.998;2022-09-23T19:47:59;1.47;;;1.37;;
16033;SDS011;8121;51.418;6.998;2022-09-23T19:58:01;1.73;;;1.20;;
16033;SDS011;8121;51.418;6.998;2022-09-23T20:08:05;3.57;;;1.40;;
16033;SDS011;8121;51.418;6.998;2022-09-23T20:18:06;1.20;;;1.03;;
16033;SDS011;8121;51.418;6.998;2022-09-23T20:28:12;3.90;;;1.80;;
16033;SDS011;8121;51.418;6.998;2022-09-23T20:59:45;1.40;;;1.30;;
16033;SDS011;8121;51.418;6.998;2022-09-23T21:32:03;3.93;;;1.43;;
16033;SDS011;8121;51.418;6.998;2022-09-23T21:42:09;2.00;;;1.87;;
16033;SDS011;8121;51.418;6.998;2022-09-23T21:52:20;1.23;;;1.13;;
16033;SDS011;8121;51.418;6.998;2022-09-23T22:02:32;3.93;;;1.60;;
16033;SDS011;8121;51.418;6.998;2022-09-23T22:12:44;3.43;;;1.43;;
16033;SDS011;8121;51.418;6.998;2022-09-23T22:22:51;1.20;;;1.10;;
16033;SDS011;8121;51.418;6.998;2022-09-23T22:32:54;1.40;;;1.30;;
16033;SDS011;8121;51.418;6.998;2022-09-23T22:42:59;1.63;;;1.17;;
16033;SDS011;8121;51.418;6.998;2022-09-23T22:53:02;1.63;;;1.53;;
16033;SDS011;8121;51.418;6.998;2022-09-23T23:03:05;2.10;;;1.77;;
16033;SDS011;8121;51.418;6.998;2022-09-23T23:13:08;9.93;;;3.50;;
16033;SDS011;8121;51.418;6.998;2022-09-23T23:23:10;3.17;;;2.83;;
16033;SDS011;8121;51.418;6.998;2022-09-23T23:33:13;6.00;;;2.87;;
16033;SDS011;8121;51.418;6.998;2022-09-23T23:43:15;6.63;;;3.83;;
16033;SDS011;8121;51.418;6.998;2022-09-23T23:53:19;3.23;;;2.77;;
